Time;durP1;ratioP1;P1;durP2;ratioP2;P2;SDS_P1;SDS_P2;PMS_P1;PMS_P2;Temp;Humidity;BMP_temperature;BMP_pressure;BME280_temperature;BME280_humidity;BME280_pressure;Samples;Min_cycle;Max_cycle;Signal;HPM_P1;HPM_P2
2022/08/15 00:00:07;;;;;;;13.10;8.50;;;;;;;18.51;100.00;99418.66;104604;1275;72099;-75
2022/08/15 00:03:27;;;;;;;16.60;8.90;;;;;;;18.49;100.00;99415.69;104709;1274;60533;-72
2022/08/15 00:06:45;;;;;;;13.60;8.50;;;;;;;18.47;100.00;99412.70;104824;1274;60565;-72
2022/08/15 00:09:37;;;;;;;14.60;8.90;;;;;;;18.46;100.00;99413.02;104580;1274;72718;-72
2022/08/15 00:12:42;;;;;;;15.20;8.60;;;;;;;18.46;100.00;99408.56;104778;1274;69065;-74
2022/08/15 00:15:33;;;;;;;16.20;8.40;;;;;;;18.45;100.00;99406.98;104830;1274;73498;-73
2022/08/15 00:18:26;;;;;;;15.00;8.70;;;;;;;18.44;100.00;99403.69;104849;1274;60543;-73
2022/08/15 00:21:19;;;;;;;15.20;8.60;;;;;;;18.44;100.00;99398.41;104796;1274;60354;-74
2022/08/15 00:24:16;;;;;;;14.90;8.70;;;;;;;18.42;100.00;99404.33;104764;1274;72969;-72
2022/08/15 00:27:08;;;;;;;14.80;9.00;;;;;;;18.41;100.00;99410.23;104782;1274;68423;-72
2022/08/15 00:29:57;;;;;;;13.70;8.50;;;;;;;18.41;100.00;99412.05;104767;1274;71581;-73
2022/08/15 00:32:55;;;;;;;14.40;8.30;;;;;;;18.41;100.00;99417.04;104639;1275;61308;-72
2022/08/15 00:36:07;;;;;;;14.80;8.60;;;;;;;18.41;100.00;99416.20;105007;1274;62163;-71
2022/08/15 00:39:20;;;;;;;14.80;9.00;;;;;;;18.38;100.00;99419.98;104962;1274;73984;-72
2022/08/15 00:42:09;;;;;;;16.60;8.90;;;;;;;18.39;100.00;99425.48;104767;1274;66834;-73
2022/08/15 00:45:01;;;;;;;14.80;8.50;;;;;;;18.38;100.00;99428.42;104967;1274;73510;-73
2022/08/15 00:51:25;;;;;;;12.40;8.10;;;;;;;18.44;100.00;99421.84;105012;1274;60375;-72
2022/08/15 00:54:32;;;;;;;15.40;9.00;;;;;;;18.47;100.00;99421.17;104660;1275;74369;-72
2022/08/15 00:57:45;;;;;;;14.00;8.40;;;;;;;18.49;100.00;99423.60;105061;1274;68541;-72
2022/08/15 01:00:48;;;;;;;13.90;8.10;;;;;;;18.52;100.00;99424.54;104911;1274;73786;-73
2022/08/15 01:03:44;;;;;;;15.40;8.80;;;;;;;18.54;100.00;99423.64;104735;1275;60511;-73
2022/08/15 01:06:45;;;;;;;15.40;9.30;;;;;;;18.59;100.00;99421.33;104620;1274;61030;-73
2022/08/15 01:09:40;;;;;;;14.20;8.10;;;;;;;18.62;100.00;99419.92;104783;1274;75356;-72
2022/08/15 01:12:33;;;;;;;13.90;8.40;;;;;;;18.65;100.00;99421.30;104940;1274;68789;-72
2022/08/15 01:15:24;;;;;;;15.80;8.00;;;;;;;18.67;100.00;99422.65;104862;1276;73475;-72
2022/08/15 01:18:29;;;;;;;14.80;8.80;;;;;;;18.69;100.00;99421.88;104900;1276;61111;-72
2022/08/15 01:22:00;;;;;;;18.80;9.80;;;;;;;18.71;100.00;99421.45;104808;1277;60592;-72
2022/08/15 01:25:03;;;;;;;16.90;8.80;;;;;;;18.74;100.00;99423.60;104965;1276;72968;-71
2022/08/15 01:28:24;;;;;;;16.10;8.70;;;;;;;18.80;100.00;99420.42;104817;1277;69178;-70
2022/08/15 01:31:22;;;;;;;12.60;8.30;;;;;;;18.86;100.00;99418.98;104992;1275;74367;-71
2022/08/15 01:34:11;;;;;;;14.20;8.50;;;;;;;18.88;100.00;99418.29;104775;1276;60902;-73
2022/08/15 01:37:04;;;;;;;18.20;9.10;;;;;;;18.92;100.00;99416.45;104658;1276;60369;-72
2022/08/15 01:40:14;;;;;;;16.10;9.10;;;;;;;18.93;100.00;99412.04;104977;1276;73459;-68
2022/08/15 01:43:27;;;;;;;14.90;8.80;;;;;;;18.92;100.00;99410.83;104605;1276;69721;-69
2022/08/15 01:46:20;;;;;;;19.50;9.50;;;;;;;18.93;100.00;99410.91;104814;1277;74483;-71
2022/08/15 01:49:18;;;;;;;18.80;10.80;;;;;;;18.95;100.00;99411.77;104567;1277;60472;-70
2022/08/15 01:52:06;;;;;;;18.60;10.30;;;;;;;18.98;100.00;99411.86;104523;1277;60578;-69
2022/08/15 01:55:16;;;;;;;16.20;10.00;;;;;;;18.99;100.00;99410.45;104807;1276;73477;-74
2022/08/15 01:58:07;;;;;;;15.10;9.30;;;;;;;19.01;100.00;99406.19;104637;1277;69490;-72
2022/08/15 02:01:07;;;;;;;15.50;9.20;;;;;;;18.99;100.00;99406.34;104753;1276;74467;-73
2022/08/15 02:03:58;;;;;;;16.00;9.00;;;;;;;18.97;100.00;99406.77;104531;1277;60915;-74
2022/08/15 02:06:47;;;;;;;15.80;9.30;;;;;;;18.95;100.00;99407.20;104779;1275;61024;-73
2022/08/15 02:09:47;;;;;;;15.60;9.20;;;;;;;18.92;100.00;99399.87;104751;1277;73036;-69
2022/08/15 02:12:51;;;;;;;17.30;9.10;;;;;;;18.91;100.00;99397.33;104820;1275;69353;-71
2022/08/15 02:16:01;;;;;;;13.30;8.80;;;;;;;18.88;100.00;99397.44;104806;1274;74514;-69
2022/08/15 02:18:52;;;;;;;14.90;8.60;;;;;;;18.87;100.00;99394.38;104705;1277;60548;-69
2022/08/15 02:21:47;;;;;;;16.50;9.90;;;;;;;18.84;100.00;99389.34;104578;1275;61174;-73
2022/08/15 02:24:38;;;;;;;14.50;9.40;;;;;;;18.82;100.00;99389.02;104718;1274;75664;-71
2022/08/15 02:27:33;;;;;;;15.50;9.30;;;;;;;18.80;100.00;99386.05;104658;1275;69567;-71
2022/08/15 02:30:25;;;;;;;14.50;9.20;;;;;;;18.78;100.00;99385.61;104582;1275;73477;-72
2022/08/15 02:33:23;;;;;;;14.20;8.30;;;;;;;18.75;100.00;99385.45;104631;1274;60469;-70
2022/08/15 02:36:13;;;;;;;17.70;9.40;;;;;;;18.73;100.00;99382.57;105031;1277;60539;-74
2022/08/15 02:39:22;;;;;;;15.40;8.80;;;;;;;18.74;100.00;99376.37;104679;1275;73092;-72
2022/08/15 02:42:12;;;;;;;15.30;9.10;;;;;;;18.74;100.00;99381.91;104889;1274;68042;-72
2022/08/15 02:45:09;;;;;;;19.20;9.20;;;;;;;18.70;100.00;99378.65;104798;1274;74400;-74
2022/08/15 02:48:00;;;;;;;17.10;8.90;;;;;;;18.66;100.00;99378.20;104810;1276;61332;-75
2022/08/15 02:51:12;;;;;;;15.60;9.20;;;;;;;18.62;100.00;99380.49;104850;1274;62197;-73
2022/08/15 02:54:01;;;;;;;16.00;10.40;;;;;;;18.57;100.00;99380.23;105032;1274;74122;-73
2022/08/15 02:57:10;;;;;;;18.30;9.70;;;;;;;18.53;100.00;99379.07;105555;1274;68043;-74
2022/08/15 03:00:10;;;;;;;15.80;10.20;;;;;;;18.50;100.00;99378.19;104854;1276;75004;-72
2022/08/15 03:03:14;;;;;;;18.40;10.80;;;;;;;18.49;100.00;99375.67;105008;1274;60854;-73
2022/08/15 03:06:10;;;;;;;16.30;10.10;;;;;;;18.46;100.00;99377.14;105059;1276;62394;-72
2022/08/15 03:09:19;;;;;;;14.60;9.50;;;;;;;18.43;100.00;99372.92;104577;1277;72283;-73
2022/08/15 03:12:20;;;;;;;16.50;9.50;;;;;;;18.41;100.00;99372.86;104979;1276;69534;-71
2022/08/15 03:15:32;;;;;;;15.50;9.50;;;;;;;18.39;100.00;99372.73;104564;1276;74454;-71
2022/08/15 03:18:26;;;;;;;14.50;9.20;;;;;;;18.36;100.00;99370.55;104815;1276;60549;-70
2022/08/15 03:21:23;;;;;;;15.80;10.10;;;;;;;18.34;100.00;99368.83;104814;1276;60766;-72
2022/08/15 03:24:13;;;;;;;15.00;8.90;;;;;;;18.32;100.00;99368.52;104516;1276;73553;-70
2022/08/15 03:27:04;;;;;;;16.00;10.30;;;;;;;18.31;100.00;99370.10;104467;1276;66812;-71
2022/08/15 03:29:54;;;;;;;17.80;10.30;;;;;;;18.30;100.00;99371.96;104645;1274;73381;-74
2022/08/15 03:32:52;;;;;;;20.90;11.10;;;;;;;18.31;100.00;99370.27;104942;1274;60578;-70
2022/08/15 03:35:47;;;;;;;19.40;10.60;;;;;;;18.32;100.00;99366.77;104759;1274;60588;-73
2022/08/15 03:38:45;;;;;;;15.80;10.30;;;;;;;18.32;100.00;99365.05;104811;1275;73783;-72
2022/08/15 03:41:43;;;;;;;16.90;10.40;;;;;;;18.32;100.00;99365.27;104949;1276;69075;-72
2022/08/15 03:44:31;;;;;;;19.10;10.10;;;;;;;18.32;100.00;99366.02;104883;1277;73787;-73
2022/08/15 03:47:21;;;;;;;15.10;9.90;;;;;;;18.33;100.00;99366.04;104797;1274;60612;-74
2022/08/15 03:50:12;;;;;;;17.60;9.60;;;;;;;18.33;100.00;99366.23;104902;1275;60663;-73
2022/08/15 03:53:23;;;;;;;16.20;10.40;;;;;;;18.35;100.00;99364.23;104811;1274;75020;-73
2022/08/15 03:56:20;;;;;;;19.00;10.90;;;;;;;18.38;100.00;99361.88;104738;1275;67385;-74
2022/08/15 03:59:11;;;;;;;15.40;9.90;;;;;;;18.44;100.00;99361.41;104708;1274;73313;-71
2022/08/15 04:02:12;;;;;;;15.50;10.00;;;;;;;18.48;100.00;99361.08;104887;1274;60973;-73
2022/08/15 04:05:20;;;;;;;15.60;9.90;;;;;;;18.51;100.00;99357.30;104650;1276;60745;-73
2022/08/15 04:08:13;;;;;;;19.00;9.80;;;;;;;18.53;100.00;99357.92;104595;1276;75560;-74
2022/08/15 04:11:28;;;;;;;17.60;10.00;;;;;;;18.57;100.00;99358.34;104781;1276;69244;-73
2022/08/15 04:14:28;;;;;;;16.90;10.00;;;;;;;18.61;100.00;99359.50;104855;1276;72905;-73
2022/08/15 04:17:25;;;;;;;17.10;10.30;;;;;;;18.67;100.00;99354.86;104767;1276;61288;-74
2022/08/15 04:20:35;;;;;;;14.70;9.40;;;;;;;18.74;100.00;99354.96;104927;1276;61127;-71
2022/08/15 04:23:30;;;;;;;15.80;10.80;;;;;;;18.81;100.00;99360.07;104573;1276;75575;-71
2022/08/15 04:26:20;;;;;;;15.40;10.30;;;;;;;18.88;100.00;99358.11;104746;1276;69153;-73
2022/08/15 04:29:16;;;;;;;17.20;9.90;;;;;;;18.98;100.00;99356.92;104920;1276;73534;-75
2022/08/15 04:32:06;;;;;;;18.00;10.40;;;;;;;19.07;100.00;99352.61;105650;1275;60490;-74
2022/08/15 04:34:58;;;;;;;19.00;11.20;;;;;;;19.16;100.00;99349.23;104724;1276;61055;-75
2022/08/15 04:37:47;;;;;;;16.80;10.10;;;;;;;19.29;100.00;99345.13;104708;1277;74107;-74
2022/08/15 04:40:36;;;;;;;18.10;11.70;;;;;;;19.42;100.00;99345.11;104566;1279;67898;-76
2022/08/15 04:43:46;;;;;;;21.70;11.70;;;;;;;19.54;100.00;99338.82;104527;1278;72973;-70
2022/08/15 04:46:39;;;;;;;20.10;11.70;;;;;;;19.66;100.00;99341.35;104650;1280;60824;-71
2022/08/15 04:49:29;;;;;;;18.10;11.60;;;;;;;19.77;100.00;99340.90;104543;1280;60449;-71
2022/08/15 04:52:20;;;;;;;19.40;11.50;;;;;;;19.89;100.00;99342.64;104614;1278;74088;-72
2022/08/15 04:55:13;;;;;;;21.80;12.40;;;;;;;20.02;100.00;99342.55;104540;1280;69698;-72
2022/08/15 04:58:04;;;;;;;19.20;10.60;;;;;;;20.15;100.00;99336.09;104450;1279;71646;-70
2022/08/15 05:01:13;;;;;;;19.60;11.50;;;;;;;20.29;100.00;99332.96;104824;1279;60517;-69
2022/08/15 05:04:10;;;;;;;20.90;12.50;;;;;;;20.42;100.00;99330.56;104649;1279;61583;-74
2022/08/15 05:07:13;;;;;;;21.60;12.10;;;;;;;20.55;100.00;99329.87;104035;1282;75609;-72
2022/08/15 05:10:08;;;;;;;18.50;11.50;;;;;;;20.70;100.00;99325.58;104333;1281;66658;-70
2022/08/15 05:13:14;;;;;;;20.00;12.10;;;;;;;20.84;99.92;99321.09;104339;1281;74062;-73
2022/08/15 05:16:07;;;;;;;18.20;11.50;;;;;;;20.97;98.66;99315.66;104531;1279;60380;-72
2022/08/15 05:19:00;;;;;;;17.00;11.20;;;;;;;21.08;97.51;99317.02;104316;1279;60399;-73
2022/08/15 05:21:51;;;;;;;19.10;11.30;;;;;;;21.19;95.80;99321.82;104588;1279;74096;-73
2022/08/15 05:24:39;;;;;;;20.90;11.60;;;;;;;21.34;95.39;99327.06;104650;1279;69185;-74
2022/08/15 05:35:29;;;;;;;17.30;11.30;;;;;;;22.42;88.25;99320.66;101839;1309;600346;-73
2022/08/15 05:38:47;;;;;;;17.10;10.00;;;;;;;23.05;85.51;99312.24;103970;1287;59286;-72
2022/08/15 05:42:18;;;;;;;16.10;10.40;;;;;;;23.87;79.45;99309.87;103854;1287;61818;-78
2022/08/15 05:45:24;;;;;;;20.30;11.40;;;;;;;24.82;76.54;99308.08;103672;1289;68563;-69
2022/08/15 05:48:31;;;;;;;17.70;9.60;;;;;;;25.60;72.42;99310.66;103930;1274;1207440;-76
2022/08/15 05:51:57;;;;;;;18.30;9.80;;;;;;;26.27;68.63;99310.64;105017;1274;74429;-71
2022/08/15 05:55:17;;;;;;;16.90;9.40;;;;;;;26.95;64.03;99313.30;104947;1274;59657;-74
2022/08/15 05:58:37;;;;;;;15.30;9.50;;;;;;;27.47;60.62;99319.45;105094;1274;61125;-74
2022/08/15 06:02:05;;;;;;;19.50;8.80;;;;;;;28.05;58.93;99320.80;105079;1274;70881;-74
2022/08/15 06:05:22;;;;;;;15.30;9.10;;;;;;;28.39;55.90;99326.34;105143;1276;68084;-76
2022/08/15 06:08:36;;;;;;;16.00;8.80;;;;;;;28.73;54.87;99328.06;105213;1274;72925;-74
2022/08/15 06:11:46;;;;;;;17.90;8.80;;;;;;;29.31;54.68;99326.50;104948;1276;59302;-74
2022/08/15 06:14:49;;;;;;;16.20;8.80;;;;;;;29.74;51.75;99319.83;105117;1275;61783;-78
2022/08/15 06:17:44;;;;;;;12.90;8.70;;;;;;;29.86;49.08;99323.92;105399;1274;73104;-76
2022/08/15 06:21:14;;;;;;;16.60;8.60;;;;;;;30.04;49.49;99324.02;105029;1276;67470;-78
2022/08/15 06:24:44;;;;;;;18.40;8.60;;;;;;;30.45;48.73;99319.18;104760;1281;73109;-79
2022/08/15 06:27:54;;;;;;;12.90;8.10;;;;;;;30.72;47.00;99317.85;104866;1279;59428;-80
2022/08/15 06:31:00;;;;;;;13.80;9.00;;;;;;;31.09;46.53;99322.93;105042;1279;61099;-78
2022/08/15 06:33:51;;;;;;;13.70;9.20;;;;;;;31.49;45.24;99328.55;104896;1279;72240;-78
2022/08/15 06:37:12;;;;;;;13.50;8.70;;;;;;;31.88;44.41;99327.64;105042;1279;69591;-76
2022/08/15 06:40:26;;;;;;;13.20;7.80;;;;;;;31.98;42.69;99322.02;105002;1279;71641;-76
2022/08/15 06:43:17;;;;;;;13.20;8.40;;;;;;;32.25;43.18;99324.98;105066;1279;59251;-75
2022/08/15 06:46:16;;;;;;;13.50;8.40;;;;;;;32.15;41.32;99324.63;104222;1279;61087;-76
2022/08/15 06:49:25;;;;;;;18.20;8.80;;;;;;;32.00;42.10;99321.96;104827;1279;72511;-76
2022/08/15 06:52:25;;;;;;;15.30;7.50;;;;;;;32.13;42.38;99328.74;104408;1280;68062;-73
2022/08/15 06:55:16;;;;;;;12.60;8.20;;;;;;;32.24;42.22;99329.55;104600;1280;74429;-74
2022/08/15 06:58:19;;;;;;;14.30;9.40;;;;;;;32.73;42.32;99322.02;104820;1279;59857;-73
2022/08/15 07:02:18;;;;;;;15.10;8.50;;;;;;;33.37;40.87;99320.50;104826;1277;60596;-76
2022/08/15 07:05:25;;;;;;;16.70;9.00;;;;;;;33.63;39.48;99320.04;104896;1276;72181;-72
2022/08/15 07:08:25;;;;;;;13.20;8.70;;;;;;;33.82;39.33;99319.20;105027;1274;66837;-76
2022/08/15 07:11:46;;;;;;;14.40;8.30;;;;;;;34.14;38.66;99319.36;104948;1274;72889;-73
2022/08/15 07:15:10;;;;;;;15.00;8.30;;;;;;;34.58;38.43;99312.75;105606;1274;59327;-69
2022/08/15 07:18:14;;;;;;;15.00;8.60;;;;;;;35.02;36.61;99312.56;104960;1274;61067;-74
2022/08/15 07:21:18;;;;;;;14.20;7.80;;;;;;;35.57;36.54;99309.86;105357;1273;71742;-76
2022/08/15 07:24:18;;;;;;;13.20;7.60;;;;;;;36.38;35.10;99305.02;104851;1274;69684;-75
2022/08/15 07:27:30;;;;;;;12.20;7.30;;;;;;;37.17;33.66;99308.52;105205;1274;71450;-74
2022/08/15 07:30:26;;;;;;;14.30;7.50;;;;;;;37.42;32.94;99306.83;104946;1274;59285;-74
2022/08/15 07:33:42;;;;;;;14.40;8.20;;;;;;;38.00;32.02;99304.21;105424;1274;62097;-73
2022/08/15 07:36:56;;;;;;;12.10;7.20;;;;;;;38.51;31.01;99296.13;104975;1274;70299;-75
2022/08/15 07:39:44;;;;;;;12.80;7.30;;;;;;;38.79;30.42;99299.20;104975;1274;68105;-73
2022/08/15 07:42:42;;;;;;;12.20;7.00;;;;;;;39.17;30.11;99295.58;104923;1274;71828;-69
2022/08/15 07:45:48;;;;;;;13.00;6.60;;;;;;;39.56;29.56;99288.37;105037;1273;59413;-74
2022/08/15 07:49:31;;;;;;;14.50;7.30;;;;;;;39.77;29.25;99286.27;105328;1274;59417;-72
2022/08/15 07:52:21;;;;;;;17.10;13.20;;;;;;;40.11;28.83;99285.09;105095;1274;72682;-71
2022/08/15 07:55:29;;;;;;;12.70;8.20;;;;;;;40.47;28.19;99284.85;105072;1274;67025;-72
2022/08/15 07:58:39;;;;;;;14.90;8.20;;;;;;;40.62;27.63;99283.14;105308;1273;72852;-70
2022/08/15 08:01:31;;;;;;;12.10;6.70;;;;;;;40.71;27.91;99282.84;105192;1273;59912;-71
2022/08/15 08:04:29;;;;;;;10.90;6.90;;;;;;;40.53;26.79;99285.23;104914;1273;59504;-70
2022/08/15 08:07:36;;;;;;;12.40;8.20;;;;;;;40.08;27.54;99286.55;105818;1273;73200;-66
2022/08/15 08:10:39;;;;;;;10.40;7.10;;;;;;;40.21;27.69;99288.54;105035;1274;68536;-65
2022/08/15 08:14:06;;;;;;;10.50;6.40;;;;;;;40.03;28.15;99287.55;105004;1273;73462;-65
2022/08/15 08:17:51;;;;;;;10.70;6.70;;;;;;;39.07;28.52;99287.29;104468;1275;59412;-63
2022/08/15 08:20:51;;;;;;;11.10;6.50;;;;;;;38.65;29.17;99282.05;104887;1274;62431;-63
2022/08/15 08:23:46;;;;;;;12.40;7.60;;;;;;;38.67;29.76;99280.43;104852;1274;72279;-66
2022/08/15 08:27:02;;;;;;;10.60;6.60;;;;;;;38.63;29.61;99278.73;104881;1274;67849;-66
2022/08/15 08:30:04;;;;;;;15.40;7.60;;;;;;;38.65;29.78;99274.05;104879;1274;72024;-64
2022/08/15 08:34:05;;;;;;;10.20;6.60;;;;;;;38.77;29.74;99276.05;104773;1276;59813;-65
2022/08/15 08:37:23;;;;;;;13.00;6.60;;;;;;;39.13;29.48;99270.81;104904;1274;59783;-67
2022/08/15 08:44:16;;;;;;;11.60;7.30;;;;;;;38.98;29.10;99269.13;105097;1273;69591;-65
2022/08/15 08:47:37;;;;;;;13.80;7.20;;;;;;;39.51;28.75;99269.52;104702;1274;74878;-64
2022/08/15 08:51:06;;;;;;;11.60;6.90;;;;;;;39.63;28.23;99269.34;104725;1274;59349;-64
2022/08/15 08:54:10;;;;;;;9.60;6.00;;;;;;;40.21;27.87;99268.38;104698;1274;60641;-61
2022/08/15 08:57:25;;;;;;;13.30;6.20;;;;;;;40.15;27.67;99273.24;105131;1273;71832;-61
2022/08/15 09:00:31;;;;;;;10.00;7.00;;;;;;;40.15;27.36;99273.47;104823;1274;68567;-62
2022/08/15 09:03:40;;;;;;;11.90;7.50;;;;;;;40.02;27.80;99272.64;104744;1274;73340;-65
2022/08/15 09:06:38;;;;;;;10.20;7.00;;;;;;;39.95;27.31;99274.55;104908;1274;59374;-67
2022/08/15 09:09:36;;;;;;;12.00;7.10;;;;;;;39.91;27.33;99270.11;104641;1274;62067;-68
2022/08/15 09:15:41;;;;;;;12.40;7.20;;;;;;;39.32;28.07;99278.91;104685;1276;69555;-67
2022/08/15 09:19:00;;;;;;;12.20;7.00;;;;;;;39.43;27.54;99272.52;104928;1276;73983;-68
2022/08/15 09:21:52;;;;;;;11.50;7.30;;;;;;;39.63;27.66;99270.80;104484;1276;59408;-70
2022/08/15 09:24:44;;;;;;;11.70;7.20;;;;;;;39.67;27.56;99265.41;104915;1276;60031;-63
2022/08/15 09:28:11;;;;;;;12.50;6.70;;;;;;;39.73;27.78;99261.35;104899;1275;72744;-64
2022/08/15 09:31:29;;;;;;;11.30;6.80;;;;;;;39.73;27.77;99261.41;105437;1274;68721;-62
2022/08/15 09:35:10;;;;;;;14.60;7.90;;;;;;;39.76;27.44;99263.44;105081;1273;73470;-63
2022/08/15 09:38:23;;;;;;;13.30;7.60;;;;;;;39.90;27.69;99257.83;104666;1274;59340;-67
2022/08/15 09:41:33;;;;;;;13.80;7.80;;;;;;;39.62;27.29;99259.73;104904;1274;59406;-66
2022/08/15 09:45:00;;;;;;;12.30;8.30;;;;;;;39.39;27.86;99257.67;104864;1274;73248;-66
2022/08/15 09:48:28;;;;;;;12.50;7.70;;;;;;;39.49;28.37;99256.89;104959;1273;67138;-69
2022/08/15 09:52:02;;;;;;;12.50;7.10;;;;;;;40.02;28.11;99251.92;104951;1274;71322;-68
2022/08/15 09:54:59;;;;;;;13.00;8.20;;;;;;;40.21;27.37;99256.14;105070;1274;59756;-66
2022/08/15 09:57:54;;;;;;;18.00;8.30;;;;;;;40.34;27.61;99249.13;105084;1273;60257;-77
2022/08/15 10:01:27;;;;;;;15.30;7.80;;;;;;;40.63;27.09;99250.11;105240;1274;71541;-69
2022/08/15 10:04:19;;;;;;;13.00;8.00;;;;;;;40.60;26.92;99245.62;104296;1279;68545;-65
2022/08/15 10:07:08;;;;;;;12.30;7.40;;;;;;;40.56;27.06;99241.33;105175;1279;73317;-64
2022/08/15 10:10:00;;;;;;;12.70;7.20;;;;;;;40.42;27.03;99232.88;104327;1280;59457;-70
2022/08/15 10:13:07;;;;;;;12.30;7.40;;;;;;;40.42;27.16;99233.37;104313;1279;62451;-67
2022/08/15 10:15:57;;;;;;;11.40;7.90;;;;;;;40.44;27.24;99232.11;104422;1280;70641;-67
2022/08/15 10:19:20;;;;;;;12.40;7.40;;;;;;;40.53;27.08;99230.62;104405;1280;70066;-72
2022/08/15 10:22:24;;;;;;;11.20;6.60;;;;;;;40.39;27.23;99225.95;104320;1280;72654;-71
2022/08/15 10:25:38;;;;;;;11.40;7.30;;;;;;;40.33;27.47;99226.48;104285;1280;59436;-67
2022/08/15 10:28:26;;;;;;;10.90;6.90;;;;;;;40.35;27.39;99225.12;104333;1280;59838;-67
2022/08/15 10:31:54;;;;;;;12.20;7.50;;;;;;;40.42;27.28;99225.86;104303;1279;73138;-68
2022/08/15 10:35:12;;;;;;;10.50;6.40;;;;;;;40.41;27.29;99222.75;104583;1280;68822;-69
2022/08/15 10:38:07;;;;;;;11.60;7.00;;;;;;;40.26;27.38;99220.41;104442;1280;74671;-65
2022/08/15 10:41:50;;;;;;;11.90;7.20;;;;;;;40.11;27.58;99224.08;104527;1275;59326;-70
2022/08/15 10:45:29;;;;;;;11.40;6.60;;;;;;;40.09;27.34;99224.45;104677;1274;60510;-69
2022/08/15 10:48:52;;;;;;;10.10;7.00;;;;;;;40.10;27.18;99227.69;104966;1274;73272;-66
2022/08/15 10:52:27;;;;;;;13.80;6.90;;;;;;;40.11;27.37;99228.89;104451;1281;67172;-66
2022/08/15 10:55:39;;;;;;;15.40;7.20;;;;;;;39.94;27.49;99229.63;104172;1281;73760;-63
2022/08/15 10:58:49;;;;;;;10.10;6.50;;;;;;;40.05;27.38;99223.42;104443;1279;59255;-72
2022/08/15 11:01:39;;;;;;;12.30;6.50;;;;;;;39.98;27.42;99218.44;104525;1281;60548;-66
2022/08/15 11:04:36;;;;;;;10.60;7.20;;;;;;;39.88;27.59;99223.05;104404;1281;74479;-62
2022/08/15 11:07:52;;;;;;;11.20;6.80;;;;;;;39.36;27.88;99222.51;104022;1281;68346;-69
2022/08/15 11:10:46;;;;;;;11.10;7.20;;;;;;;37.57;30.20;99216.66;104162;1281;73487;-70
2022/08/15 11:13:36;;;;;;;15.20;7.10;;;;;;;36.13;32.38;99222.54;104175;1281;59657;-70
2022/08/15 11:16:47;;;;;;;12.00;8.30;;;;;;;34.75;34.81;99222.20;104193;1281;59372;-70
2022/08/15 11:19:44;;;;;;;13.80;8.10;;;;;;;33.33;37.14;99233.06;104378;1281;73103;-72
2022/08/15 11:22:59;;;;;;;13.50;8.60;;;;;;;32.24;39.75;99227.77;104201;1281;68638;-71
2022/08/15 11:25:56;;;;;;;12.00;8.50;;;;;;;31.41;41.43;99237.14;104368;1281;74403;-70
2022/08/15 11:28:45;;;;;;;13.60;8.80;;;;;;;30.70;43.07;99244.21;104419;1274;59251;-70
2022/08/15 11:31:56;;;;;;;14.50;8.90;;;;;;;30.14;44.78;99237.13;105035;1273;60528;-75
2022/08/15 11:34:51;;;;;;;16.40;8.90;;;;;;;29.73;46.70;99227.87;105146;1274;72866;-75
2022/08/15 11:37:43;;;;;;;16.10;10.20;;;;;;;29.65;47.90;99226.57;104989;1274;68512;-77
2022/08/15 11:40:51;;;;;;;14.70;9.20;;;;;;;29.45;48.95;99236.70;105077;1273;72588;-72
2022/08/15 11:43:41;;;;;;;15.40;10.00;;;;;;;29.17;49.31;99227.45;105019;1274;59488;-77
2022/08/15 11:46:30;;;;;;;16.00;10.00;;;;;;;28.98;49.75;99222.85;104917;1274;59935;-71
2022/08/15 11:49:33;;;;;;;29.60;23.40;;;;;;;29.06;51.19;99215.08;105108;1274;72786;-75
2022/08/15 11:52:29;;;;;;;20.90;13.60;;;;;;;29.45;52.63;99210.33;104979;1274;68115;-74
2022/08/15 11:55:32;;;;;;;16.20;10.80;;;;;;;29.99;51.66;99207.55;105364;1274;74379;-73
2022/08/15 11:58:35;;;;;;;14.10;9.20;;;;;;;30.50;49.54;99202.93;105550;1273;59320;-74
2022/08/15 12:01:44;;;;;;;14.40;10.90;;;;;;;30.90;48.02;99197.64;105148;1274;59408;-75
2022/08/15 12:04:38;;;;;;;27.80;22.40;;;;;;;31.15;47.33;99196.73;105228;1274;73980;-78
2022/08/15 12:07:48;;;;;;;15.20;10.10;;;;;;;31.25;46.92;99195.89;105164;1274;66820;-77
2022/08/15 12:10:43;;;;;;;16.30;11.00;;;;;;;31.32;46.38;99200.05;104859;1274;71995;-74
2022/08/15 12:14:00;;;;;;;17.20;9.50;;;;;;;31.27;46.44;99189.19;104975;1274;59267;-75
2022/08/15 12:17:01;;;;;;;13.80;9.90;;;;;;;31.19;46.89;99185.58;105116;1274;61996;-76
2022/08/15 12:19:54;;;;;;;14.30;9.70;;;;;;;31.17;46.73;99185.31;104991;1274;72551;-76
2022/08/15 12:23:36;;;;;;;15.30;9.80;;;;;;;31.02;46.65;99182.83;105045;1274;67182;-72
2022/08/15 12:26:36;;;;;;;15.30;10.70;;;;;;;30.72;47.11;99181.62;104908;1274;71524;-75
2022/08/15 12:29:44;;;;;;;18.40;11.30;;;;;;;30.66;47.64;99180.52;105225;1274;59950;-74
2022/08/15 12:32:37;;;;;;;13.00;9.10;;;;;;;30.54;47.61;99173.21;104971;1274;59671;-76
2022/08/15 12:35:25;;;;;;;15.50;10.10;;;;;;;30.31;48.13;99171.98;105367;1274;74044;-75
2022/08/15 12:38:35;;;;;;;17.80;10.30;;;;;;;30.14;48.64;99171.17;104914;1274;67225;-75
2022/08/15 12:41:26;;;;;;;14.00;9.40;;;;;;;30.07;48.72;99168.31;104876;1274;72879;-74
2022/08/15 12:44:40;;;;;;;14.50;9.50;;;;;;;30.04;49.03;99160.73;104857;1274;59403;-77
2022/08/15 12:47:35;;;;;;;13.30;8.80;;;;;;;29.98;49.17;99154.73;104948;1274;60629;-74
2022/08/15 12:50:25;;;;;;;14.40;8.70;;;;;;;30.05;49.14;99152.57;104863;1274;72925;-75
2022/08/15 12:53:13;;;;;;;13.50;9.10;;;;;;;30.15;48.85;99155.98;105169;1274;69185;-75
2022/08/15 12:56:08;;;;;;;12.30;8.50;;;;;;;30.30;48.33;99155.14;104910;1274;74440;-76
2022/08/15 12:59:16;;;;;;;16.00;9.70;;;;;;;30.49;48.02;99147.35;104927;1274;59683;-79
2022/08/15 13:02:04;;;;;;;14.10;8.00;;;;;;;30.60;47.12;99142.52;105022;1274;61523;-74
2022/08/15 13:04:56;;;;;;;13.30;8.40;;;;;;;30.82;47.06;99141.25;105178;1274;71926;-74
2022/08/15 13:07:44;;;;;;;14.60;8.70;;;;;;;30.99;46.60;99144.64;104922;1274;69596;-78
2022/08/15 13:10:52;;;;;;;13.10;8.50;;;;;;;31.01;46.10;99140.41;104931;1274;72860;-76
2022/08/15 13:13:50;;;;;;;13.70;8.90;;;;;;;30.88;46.36;99143.00;105176;1274;59889;-75
2022/08/15 13:16:42;;;;;;;14.20;9.20;;;;;;;30.61;46.93;99143.18;105255;1274;59518;-74
2022/08/15 13:26:11;;;;;;;17.10;10.50;;;;;;;29.49;52.60;99130.30;105243;1274;73895;-75
2022/08/15 13:29:19;;;;;;;16.80;9.20;;;;;;;29.13;54.32;99129.23;105004;1274;59407;-77
2022/08/15 13:32:07;;;;;;;14.20;9.00;;;;;;;28.87;56.66;99121.08;105133;1274;59391;-75
2022/08/15 13:34:59;;;;;;;19.10;13.30;;;;;;;28.61;57.72;99112.82;105162;1274;72542;-75
2022/08/15 13:37:55;;;;;;;13.80;9.80;;;;;;;28.47;59.59;99115.81;104979;1274;66626;-76
2022/08/15 13:40:51;;;;;;;16.40;9.70;;;;;;;28.34;61.25;99117.45;105133;1274;71853;-78
2022/08/15 13:43:44;;;;;;;16.10;9.80;;;;;;;28.17;61.35;99125.98;105040;1274;59803;-77
2022/08/15 13:46:44;;;;;;;16.20;10.30;;;;;;;28.00;62.78;99126.02;105243;1274;61038;-76
2022/08/15 13:49:41;;;;;;;23.30;10.90;;;;;;;27.86;66.19;99129.35;104961;1274;72977;-74
2022/08/15 13:52:29;;;;;;;21.00;11.30;;;;;;;27.67;69.32;99127.20;105123;1274;68511;-74
2022/08/15 13:55:38;;;;;;;23.00;14.20;;;;;;;27.43;70.48;99131.55;105176;1274;73438;-71
2022/08/15 13:58:31;;;;;;;25.30;12.60;;;;;;;27.16;70.79;99130.44;104908;1274;59365;-72
2022/08/15 14:01:23;;;;;;;25.10;13.20;;;;;;;26.79;71.50;99128.52;104955;1274;59311;-73
2022/08/15 14:04:35;;;;;;;21.40;11.20;;;;;;;26.44;73.22;99136.96;104810;1274;72550;-71
2022/08/15 14:07:24;;;;;;;20.50;12.20;;;;;;;26.19;70.70;99138.28;105076;1274;66843;-71
2022/08/15 14:10:18;;;;;;;27.00;13.00;;;;;;;26.09;72.65;99139.73;104937;1273;74442;-74
2022/08/15 14:13:26;;;;;;;17.30;11.50;;;;;;;26.01;73.96;99145.31;105227;1274;59368;-76
2022/08/15 14:16:21;;;;;;;26.70;13.40;;;;;;;25.83;72.07;99146.39;104972;1274;59711;-74
2022/08/15 14:19:31;;;;;;;20.90;11.00;;;;;;;25.72;72.34;99141.75;105269;1274;71197;-73